• Join FlightAware (Why Join?)
  • Login
  • US Flag 
04:15AM EDT


 

Airport Tracker/Info


-or-


 

Live Flight TrackerFlight Track Log ✈ LAN480 ✈ 30-Apr-2013 ✈ SABE / AEP - SCEL / SCL

Flight Track Log - Related Links

Times and Time Zones

All times are in EDT time to prevent confusion due to time zone crossing. See the LAN480 flight status page for this flight to view local times or setup timezone preferences in your user account.

Time Position Orientation Groundspeed Altitude Reporting Facility
EDT Latitude Longitude Course Direction KTS MPH feet Rate Location/Type
08:23PM -34.5670 -58.4020 126° Southeast 145 167 600  Level FlightAware
08:23PM -34.5720 -58.3900 117° Southeast 154 177 1,200 1,620 Climbing FlightAware
08:24PM -34.5680 -58.3690 77° East 183 211 1,700 1,380 Climbing FlightAware
08:24PM -34.5550 -58.3370 64° Northeast 237 273 2,500 2,280 Climbing FlightAware
08:25PM -34.5420 -58.3040 64° Northeast 258 297 3,800 3,000 Climbing FlightAware
08:25PM -34.5310 -58.2880 50° Northeast 256 295 4,500 2,160 Climbing FlightAware
08:25PM -34.5150 -58.2780 27° Northeast 257 296 4,900 660 Climbing FlightAware
08:26PM -34.4820 -58.2880 346° North 270 311 5,000 300 Climbing FlightAware
08:26PM -34.4740 -58.2990 311° West 275 316 5,100 1,680 Climbing FlightAware
08:26PM -34.4670 -58.3220 290° West 287 330 5,700 3,600 Climbing FlightAware
08:27PM -34.4690 -58.3710 267° West 285 328 7,800 3,900 Climbing FlightAware
08:27PM -34.4720 -58.4120 265° West 291 335 9,300 3,000 Climbing FlightAware
08:28PM -34.4770 -58.4860 265° West 320 368 11,300 2,220 Climbing FlightAware
08:28PM -34.4830 -58.5620 265° West 357 411 12,500 2,520 Climbing FlightAware
08:29PM -34.4790 -58.6540 273° West 359 413 14,900 3,600 Climbing FlightAware
08:30PM -34.4730 -58.7320 275° West 336 387 17,600 3,060 Climbing FlightAware
08:31PM -34.4680 -58.8080 275° West 351 404 19,000 2,040 Climbing FlightAware
08:31PM -34.4610 -58.8950 276° West 363 418 20,500 2,040 Climbing FlightAware
08:32PM -34.4550 -58.9770 275° West 367 422 21,900 1,980 Climbing FlightAware
08:33PM -34.4490 -59.0610 275° West 374 430 23,200 1,920 Climbing FlightAware
08:33PM -34.4420 -59.1550 275° West 375 432 24,700 1,800 Climbing FlightAware
08:34PM -34.4360 -59.2290 276° West 383 441 25,600 1,680 Climbing FlightAware
08:35PM -34.4290 -59.3140 276° West 383 441 26,800 1,620 Climbing FlightAware
08:35PM -34.4220 -59.4120 275° West 390 449 27,900 1,380 Climbing FlightAware
08:36PM -34.4150 -59.5010 275° West 396 456 28,800 1,320 Climbing FlightAware
08:37PM -34.4080 -59.5890 275° West 397 457 29,700 1,800 Climbing FlightAware
08:37PM -34.4000 -59.6840 276° West 380 437 31,400 2,160 Climbing FlightAware
08:38PM -34.3930 -59.7680 276° West 367 422 32,800 1,740 Climbing FlightAware
08:39PM -34.3850 -59.8600 276° West 360 414 33,900 840 Climbing FlightAware
08:40PM -34.3790 -59.9400 275° West 355 409 34,000 60 Climbing FlightAware
08:40PM -34.3710 -60.0280 276° West 360 414 34,000  Level FlightAware
08:41PM -34.3650 -60.1070 275° West 360 414 34,000  Level FlightAware
08:42PM -34.3580 -60.1880 276° West 360 414 34,000  Level FlightAware
08:42PM -34.3500 -60.2800 276° West 360 414 34,000  Level FlightAware
08:43PM -34.3430 -60.3600 276° West 362 417 34,000  Level FlightAware
08:44PM -34.3360 -60.4400 276° West 361 415 34,000  Level FlightAware
08:44PM -34.3280 -60.5290 276° West 360 414 34,000  Level FlightAware
08:45PM -34.3210 -60.6080 276° West 360 414 34,000  Level FlightAware
08:46PM -34.3140 -60.6940 276° West 359 413 34,000  Level FlightAware
08:47PM -34.3070 -60.7740 276° West 359 413 34,000  Level FlightAware
08:47PM -34.2990 -60.8540 277° West 359 413 34,000  Level FlightAware
08:48PM -34.2910 -60.9440 276° West 360 414 34,000  Level FlightAware
08:49PM -34.2840 -61.0240 276° West 360 414 34,000  Level FlightAware
08:49PM -34.2750 -61.1150 277° West 361 415 34,000  Level FlightAware
08:50PM -34.2680 -61.1940 276° West 361 415 34,000  Level FlightAware
08:51PM -34.2600 -61.2750 277° West 361 415 34,000  Level FlightAware
08:51PM -34.2530 -61.3500 276° West 360 414 34,000  Level FlightAware
08:52PM -34.2440 -61.4450 277° West 359 413 34,000  Level FlightAware
08:53PM -34.2370 -61.5160 277° West 359 413 34,000  Level FlightAware
08:54PM -34.2320 -61.5980 274° West 359 413 34,000  Level FlightAware
08:54PM -34.2200 -61.6960 278° West 363 418 34,000  Level FlightAware
08:55PM -34.2130 -61.7790 276° West 364 419 34,000  Level FlightAware
08:56PM -34.2080 -61.8480 275° West 364 419 34,000  Level FlightAware
08:56PM -34.1940 -61.9590 279° West 367 422 34,000  Level FlightAware
08:57PM -34.1840 -62.0570 277° West 366 421 34,000  Level FlightAware
08:58PM -34.1780 -62.1400 275° West 366 421 34,000  Level FlightAware
08:59PM -34.1680 -62.2180 279° West 34,000  Level FlightAware
09:01PM -34.1580 -62.3964 274° West  Level Estimated
09:02PM -34.1529 -62.4871 274° West  Level Estimated
09:03PM -34.1476 -62.5778 274° West  Level Estimated
09:04PM -34.1423 -62.6685 274° West  Level Estimated
09:05PM -34.1370 -62.7592 274° West  Level Estimated
09:06PM -34.1315 -62.8499 274° West  Level Estimated
09:07PM -34.1260 -62.9405 274° West  Level Estimated
09:08PM -34.1204 -63.0312 274° West  Level Estimated
09:08PM -34.0370 -63.4350 274° West 366 421 34,000  Level FlightAware
09:09PM -34.1148 -63.1218 274° West  Level Estimated
09:09PM -34.0280 -63.5200 277° West 366 421 34,000  Level FlightAware
09:10PM -34.0210 -63.5890 277° West 366 421 34,000  Level FlightAware
09:11PM -34.0080 -63.6980 278° West 365 420 34,000  Level FlightAware
09:12PM -33.9990 -63.7840 277° West 365 420 34,000  Level FlightAware
09:12PM -33.9920 -63.8520 277° West 365 420 34,000  Level FlightAware
09:13PM -33.9850 -63.9210 277° West 365 420 34,000  Level FlightAware
09:14PM -33.9780 -63.9900 277° West 365 420 34,000  Level FlightAware
09:14PM -33.9710 -64.0580 277° West 365 420 34,000  Level FlightAware
09:15PM -33.9620 -64.1440 277° West 365 420 34,000  Level FlightAware
09:16PM -33.9550 -64.2130 277° West 365 420 34,000  Level FlightAware
09:16PM -33.9480 -64.2820 277° West 365 420 34,000  Level FlightAware
09:17PM -33.9150 -64.4790 281° West 363 418 34,000  Level FlightAware
09:18PM -33.9040 -64.5460 281° West 361 415 34,000  Level FlightAware
09:19PM -33.8810 -64.6610 284° West 359 413 34,000  Level FlightAware
09:19PM -33.8670 -64.7520 280° West 357 411 34,000  Level FlightAware
09:20PM -33.8560 -64.8240 280° West 357 411 34,000  Level FlightAware
09:21PM -33.8460 -64.8910 280° West 357 411 34,000  Level FlightAware
09:22PM -33.8230 -65.0220 282° West 359 413 34,000  Level FlightAware
09:22PM -33.8120 -65.0890 281° West 359 413 34,000  Level FlightAware
09:23PM -33.8010 -65.1550 281° West 359 413 34,000  Level FlightAware
09:24PM -33.7880 -65.2390 281° West 359 413 34,000  Level FlightAware
09:25PM -33.7690 -65.3410 283° West 357 411 34,000  Level FlightAware
09:25PM -33.7530 -65.4340 282° West 357 411 34,000  Level FlightAware
09:26PM -33.7420 -65.5040 281° West 357 411 34,000  Level FlightAware
09:27PM -33.7270 -65.5880 282° West 356 410 34,000  Level FlightAware
09:27PM -33.7140 -65.6640 282° West 356 410 34,000  Level FlightAware
09:28PM -33.7040 -65.7300 280° West 356 410 34,000  Level FlightAware
09:29PM -33.6930 -65.7960 281° West 356 410 34,000  Level FlightAware
09:30PM -33.6800 -65.8780 281° West 356 410 34,000  Level FlightAware
09:30PM -33.6690 -65.9440 281° West 356 410 34,000  Level FlightAware
09:31PM -33.6580 -66.0100 281° West 356 410 34,000  Level FlightAware
09:32PM -33.6480 -66.0760 280° West 356 410 34,000  Level FlightAware
09:32PM -33.6370 -66.1420 281° West 356 410 34,000  Level FlightAware
09:33PM -33.6240 -66.2250 281° West 356 410 34,000  Level FlightAware
09:34PM -33.6130 -66.2910 281° West 356 410 34,000  Level FlightAware
09:34PM -33.6020 -66.3570 281° West 356 410 34,000  Level FlightAware
09:35PM -33.5910 -66.4230 281° West 356 410 34,000  Level FlightAware
09:36PM -33.5810 -66.4890 280° West 356 410 34,000  Level FlightAware
09:37PM -33.5670 -66.5710 282° West 356 410 34,000  Level FlightAware
09:39PM -33.5626 -66.7485 272° West  Level Estimated
09:40PM -33.5602 -66.8388 272° West  Level Estimated
09:41PM -33.5578 -66.9290 272° West  Level Estimated
09:42PM -33.5553 -67.0192 272° West  Level Estimated
09:43PM -33.5527 -67.1095 272° West  Level Estimated
09:44PM -33.5501 -67.1997 272° West  Level Estimated
09:45PM -33.5475 -67.2899 272° West  Level Estimated
09:46PM -33.5447 -67.3802 272° West  Level Estimated
09:47PM -33.5419 -67.4704 272° West  Level Estimated
09:48PM -33.5390 -67.5606 272° West  Level Estimated
09:49PM -33.5361 -67.6508 272° West  Level Estimated
09:50PM -33.5331 -67.7410 272° West  Level Estimated
09:51PM -33.5300 -67.8312 272° West  Level Estimated
09:52PM -33.5269 -67.9214 272° West  Level Estimated
09:53PM -33.5237 -68.0115 272° West  Level Estimated
09:54PM -33.5204 -68.1017 272° West  Level Estimated
09:55PM -33.5170 -68.1919 273° West  Level Estimated
09:56PM -33.5136 -68.2820 273° West  Level Estimated
09:57PM -33.5102 -68.3722 273° West  Level Estimated
09:58PM -33.5066 -68.4623 273° West  Level Estimated
09:59PM -33.5030 -68.5525 273° West  Level Estimated
10:00PM -33.4994 -68.6426 273° West  Level Estimated
10:01PM -33.4957 -68.7327 273° West  Level Estimated
10:02PM -33.4919 -68.8228 273° West  Level Estimated
10:03PM -33.4880 -68.9129 273° West  Level Estimated
10:04PM -33.4841 -69.0030 273° West  Level Estimated
10:04PM -32.9310 -69.7750 273° West 318 366 34,000  Level FlightAware
10:05PM -32.9180 -69.8330 285° West 323 372 32,700 -2,400 Descending FlightAware
10:06PM -32.8880 -69.9760 284° West 338 389 29,500 -2,880 Descending FlightAware
10:07PM -32.8800 -70.0350 279° West 343 395 28,200 -2,400 Descending FlightAware
10:08PM -32.8710 -70.1340 276° West 343 395 26,100 -2,700 Descending FlightAware
10:08PM -32.8640 -70.2160 276° West 342 394 24,200 -2,520 Descending FlightAware
10:09PM -32.8570 -70.2830 277° West 342 394 22,600 -2,520 Descending FlightAware
10:10PM -32.8510 -70.3560 276° West 344 396 20,900 -2,640 Descending FlightAware
10:10PM -32.8430 -70.4400 276° West 343 395 19,100 -2,220 Descending FlightAware
10:11PM -32.8370 -70.4970 277° West 342 394 17,800 -960 Descending FlightAware
10:12PM -32.8300 -70.5750 276° West 342 394 17,800  Level FlightAware
10:12PM -32.8250 -70.6380 275° West 342 394 17,800  Level FlightAware
10:13PM -32.8190 -70.7020 276° West 342 394 17,800  Level FlightAware
10:14PM -32.8120 -70.7820 276° West 342 394 17,800  Level FlightAware
10:15PM -32.8070 -70.8450 275° West 342 394 17,800 -3,720 Level FlightAware
10:17PM -32.9544 -70.8302 175° South  Level Estimated
10:17PM -33.1810 -70.7970 175° South 236 272 4,900  Level FlightAware
10:18PM -33.2240 -70.7950 178° South 203 234 4,500 -960 Descending FlightAware
10:18PM -33.2480 -70.7940 178° South 205 236 3,900 -780 Descending FlightAware
10:19PM -33.2830 -70.7920 177° South 204 235 3,600 -900 Descending FlightAware
10:20PM -33.3120 -70.7900 177° South 161 185 2,700 -840 Descending FlightAware
10:20PM -33.3310 -70.7890 177° South 161 185 2,700 -540 Level FlightAware
10:21PM -33.3670 -70.7870 177° South 133 153 2,000 -720 Descending FlightAware
10:27PM -33.3930 -70.7858 270° West  Level Estimated
10:28PM -33.3930 -70.7858 270° West  Level Estimated
10:29PM -33.3930 -70.7858 270° West  Level Estimated
10:30PM -33.3930 -70.7858 270° West  Level Estimated
10:31PM -33.3930 -70.7858 270° West  Level Estimated
10:32PM -33.3930 -70.7858 270° West  Level Estimated
10:33PM -33.3930 -70.7858 270° West  Level Estimated
10:34PM -33.3930 -70.7858 270° West  Level Estimated
10:35PM -33.3930 -70.7858 270° West  Level Estimated
10:36PM -33.3930 -70.7858 270° West  Level Estimated
10:37PM -33.3930 -70.7858 270° West  Level Estimated
10:38PM -33.3930 -70.7858 270° West  Level Estimated
10:39PM -33.3930 -70.7858 270° West  Level Estimated
10:40PM -33.3930 -70.7858 270° West  Level Estimated
10:41PM -33.3930 -70.7858 270° West  Level Estimated